createdAt,value
2019-05-30T00:01:08.344Z,2.50
2019-05-30T00:03:38.956Z,3.07
2019-05-30T00:06:09.198Z,2.63
2019-05-30T00:08:39.465Z,2.77
2019-05-30T00:11:10.194Z,2.23
2019-05-30T00:13:40.913Z,2.40
2019-05-30T00:16:11.321Z,2.40
2019-05-30T00:18:41.642Z,2.40
2019-05-30T00:21:12.136Z,2.47
2019-05-30T00:23:42.775Z,2.60
2019-05-30T00:26:13.505Z,2.60
2019-05-30T00:28:44.338Z,2.30
2019-05-30T00:31:14.679Z,2.57
2019-05-30T00:33:44.999Z,2.80
2019-05-30T00:36:15.835Z,2.37
2019-05-30T00:38:46.661Z,2.70
2019-05-30T00:41:17.131Z,2.60
2019-05-30T00:43:47.602Z,2.50
2019-05-30T00:46:17.922Z,2.60
2019-05-30T00:48:48.445Z,2.10
2019-05-30T00:51:18.738Z,2.30
2019-05-30T00:53:49.078Z,2.60
2019-05-30T00:56:20.037Z,2.60
2019-05-30T00:58:50.441Z,2.90
2019-05-30T01:01:20.587Z,2.33
2019-05-30T01:03:51.734Z,2.23
2019-05-30T01:06:22.285Z,2.73
2019-05-30T01:08:52.786Z,2.20
2019-05-30T01:11:23.120Z,2.60
2019-05-30T01:13:53.267Z,2.93
2019-05-30T01:16:23.688Z,2.60
2019-05-30T01:18:54.230Z,2.73
2019-05-30T01:21:25.121Z,2.33
2019-05-30T01:23:57.113Z,2.70
2019-05-30T01:26:27.636Z,2.63
2019-05-30T01:28:59.247Z,3.13
2019-05-30T01:31:31.233Z,2.80
2019-05-30T01:34:01.652Z,2.93
2019-05-30T01:36:31.986Z,3.13
2019-05-30T01:39:02.207Z,2.67
2019-05-30T01:41:32.556Z,2.47
2019-05-30T01:44:03.992Z,2.40
2019-05-30T01:46:34.847Z,3.07
2019-05-30T01:49:06.684Z,3.33
2019-05-30T01:51:37.392Z,2.90
2019-05-30T01:54:08.808Z,2.70
2019-05-30T01:56:39.378Z,3.00
2019-05-30T01:59:09.715Z,2.60
2019-05-30T02:01:40.142Z,3.10
2019-05-30T02:04:10.614Z,2.70
2019-05-30T02:06:40.879Z,3.00
2019-05-30T02:09:11.779Z,3.83
2019-05-30T02:11:42.239Z,2.87
2019-05-30T02:14:12.730Z,3.10
2019-05-30T02:16:43.190Z,2.87
2019-05-30T02:19:13.622Z,3.30
2019-05-30T02:21:44.550Z,2.60
2019-05-30T02:24:15.071Z,3.40
2019-05-30T02:26:45.740Z,3.33
2019-05-30T02:29:16.303Z,3.77
2019-05-30T02:31:46.674Z,3.43
2019-05-30T02:34:17.622Z,3.23
2019-05-30T02:36:48.599Z,3.73
2019-05-30T02:39:18.958Z,2.80
2019-05-30T02:41:49.432Z,3.17
2019-05-30T02:44:20.210Z,3.00
2019-05-30T02:46:52.163Z,3.10
2019-05-30T02:49:22.696Z,3.10
2019-05-30T02:51:53.005Z,2.97
2019-05-30T02:54:23.577Z,3.10
2019-05-30T02:56:54.196Z,3.23
2019-05-30T02:59:24.859Z,4.90
2019-05-30T03:02:01.965Z,3.27
2019-05-30T03:04:30.535Z,3.83
2019-05-30T03:07:01.977Z,3.63
2019-05-30T03:09:33.862Z,3.27
2019-05-30T03:12:06.374Z,4.67
2019-05-30T03:14:36.559Z,3.40
2019-05-30T03:17:10.243Z,3.77
2019-05-30T03:19:39.679Z,3.40
2019-05-30T03:22:12.186Z,3.10
2019-05-30T03:24:42.257Z,3.53
2019-05-30T03:27:14.304Z,3.10
2019-05-30T03:29:44.951Z,3.73
2019-05-30T03:33:00.769Z,3.50
2019-05-30T03:34:49.753Z,3.63
2019-05-30T03:37:28.418Z,3.40
2019-05-30T03:39:52.974Z,3.93
2019-05-30T03:42:24.441Z,3.63
2019-05-30T03:44:54.866Z,3.80
2019-05-30T03:47:27.466Z,4.03
2019-05-30T03:49:59.619Z,3.30
2019-05-30T03:52:31.214Z,3.60
2019-05-30T03:55:04.723Z,3.80
2019-05-30T03:57:37.611Z,3.90
2019-05-30T04:00:14.494Z,4.17
2019-05-30T04:03:03.326Z,3.80
2019-05-30T04:05:38.153Z,4.20
2019-05-30T04:08:13.506Z,4.30
2019-05-30T04:10:46.652Z,4.23
2019-05-30T04:13:33.666Z,4.30
2019-05-30T04:16:04.190Z,5.23
2019-05-30T04:18:34.606Z,4.00
2019-05-30T04:21:05.087Z,4.57
2019-05-30T04:23:35.367Z,4.77
2019-05-30T04:26:07.282Z,4.67
2019-05-30T04:28:37.938Z,5.13
2019-05-30T04:31:10.107Z,4.67
2019-05-30T04:33:40.649Z,5.07
2019-05-30T04:36:12.547Z,5.27
2019-05-30T04:38:43.149Z,4.70
2019-05-30T04:41:15.839Z,5.00
2019-05-30T04:43:47.451Z,5.10
2019-05-30T04:46:22.007Z,5.20
2019-05-30T04:48:53.353Z,5.93
2019-05-30T04:51:23.735Z,5.40
2019-05-30T04:53:54.561Z,5.60
2019-05-30T04:56:24.748Z,6.20
2019-05-30T04:58:55.295Z,7.33
2019-05-30T05:01:25.827Z,6.10
2019-05-30T05:03:56.445Z,6.23
2019-05-30T05:06:26.657Z,5.77
2019-05-30T05:08:57.069Z,5.80
2019-05-30T05:11:28.109Z,5.17
2019-05-30T05:13:58.430Z,5.60
2019-05-30T05:16:35.671Z,5.13
2019-05-30T05:19:02.079Z,4.57
2019-05-30T05:21:32.647Z,5.40
2019-05-30T05:24:02.939Z,6.07
2019-05-30T05:26:33.173Z,5.83
2019-05-30T05:29:03.482Z,5.37
2019-05-30T05:31:33.636Z,4.90
2019-05-30T05:34:03.977Z,5.10
2019-05-30T05:36:35.551Z,5.03
2019-05-30T05:39:07.288Z,5.30
2019-05-30T05:41:37.622Z,5.47
2019-05-30T05:44:08.027Z,5.20
2019-05-30T05:46:38.230Z,5.83
2019-05-30T05:49:09.096Z,4.83
2019-05-30T05:51:39.398Z,5.37
2019-05-30T05:54:09.603Z,5.17
2019-05-30T05:56:40.348Z,6.70
2019-05-30T05:59:10.835Z,5.80
2019-05-30T06:01:41.546Z,5.83
2019-05-30T06:04:13.456Z,5.33
2019-05-30T06:06:43.668Z,5.93
2019-05-30T06:09:14.292Z,5.30
2019-05-30T06:11:44.490Z,5.33
2019-05-30T06:14:14.865Z,5.50
2019-05-30T06:16:46.227Z,5.70
2019-05-30T06:19:17.177Z,5.77
2019-05-30T06:21:53.850Z,6.50
2019-05-30T06:24:20.060Z,6.07
2019-05-30T06:26:50.586Z,6.67
2019-05-30T06:29:22.043Z,5.50
2019-05-30T06:31:52.971Z,6.60
2019-05-30T06:34:32.767Z,6.40
2019-05-30T06:36:56.466Z,6.37
2019-05-30T06:39:27.612Z,7.60
2019-05-30T06:41:58.020Z,6.60
2019-05-30T06:44:28.265Z,5.70
2019-05-30T06:46:58.687Z,5.33
2019-05-30T06:49:29.123Z,5.33
2019-05-30T06:51:59.878Z,6.97
2019-05-30T06:54:31.450Z,4.90
2019-05-30T06:57:01.946Z,4.63
2019-05-30T06:59:32.187Z,5.37
2019-05-30T07:02:03.395Z,4.90
2019-05-30T07:04:50.398Z,5.30
2019-05-30T07:07:06.296Z,5.30
2019-05-30T07:09:36.873Z,6.23
2019-05-30T07:12:07.426Z,5.13
2019-05-30T07:14:37.723Z,4.40
2019-05-30T07:17:08.672Z,4.60
2019-05-30T07:19:39.125Z,5.00
2019-05-30T07:22:09.520Z,5.20
2019-05-30T07:24:39.878Z,5.50
2019-05-30T07:27:10.291Z,4.87
2019-05-30T07:29:41.175Z,4.80
2019-05-30T07:32:13.474Z,4.77
2019-05-30T07:34:45.943Z,5.20
2019-05-30T07:37:15.498Z,4.77
2019-05-30T07:39:45.833Z,4.80
2019-05-30T07:42:16.099Z,4.90
2019-05-30T07:44:46.504Z,6.27
2019-05-30T07:47:17.345Z,5.10
2019-05-30T07:49:47.697Z,6.10
2019-05-30T07:52:18.018Z,5.30
2019-05-30T07:54:48.902Z,3.97
2019-05-30T07:57:19.236Z,5.03
2019-05-30T07:59:50.488Z,6.60
2019-05-30T08:02:21.076Z,5.10
2019-05-30T08:04:51.590Z,6.20
2019-05-30T08:07:29.315Z,4.40
2019-05-30T08:10:00.192Z,5.10
2019-05-30T08:12:32.022Z,5.50
2019-05-30T08:15:02.571Z,5.87
2019-05-30T08:17:33.675Z,4.73
2019-05-30T08:20:05.165Z,4.70
2019-05-30T08:22:36.186Z,4.90
2019-05-30T08:25:08.466Z,4.83
2019-05-30T08:27:39.920Z,4.60
2019-05-30T08:30:16.111Z,4.67
2019-05-30T08:32:47.470Z,5.07
2019-05-30T08:35:17.879Z,5.30
2019-05-30T08:37:48.306Z,4.70
2019-05-30T08:40:18.800Z,5.50
2019-05-30T08:42:49.221Z,4.60
2019-05-30T08:45:20.187Z,5.23
2019-05-30T08:47:50.396Z,5.13
2019-05-30T08:50:20.926Z,5.00
2019-05-30T08:52:51.374Z,5.63
2019-05-30T08:55:21.811Z,5.43
2019-05-30T08:57:53.217Z,4.70
2019-05-30T09:00:24.208Z,4.83
2019-05-30T09:02:54.643Z,4.63
2019-05-30T09:05:25.933Z,4.73
2019-05-30T09:07:56.906Z,5.27
2019-05-30T09:10:27.778Z,5.20
2019-05-30T09:12:59.349Z,5.17
2019-05-30T09:15:31.694Z,4.00
2019-05-30T09:18:02.257Z,4.60
2019-05-30T09:20:32.734Z,4.43
2019-05-30T09:23:03.231Z,4.10
2019-05-30T09:25:33.817Z,4.60
2019-05-30T09:28:05.792Z,4.40
2019-05-30T09:30:36.154Z,4.47
2019-05-30T09:33:06.777Z,4.43
2019-05-30T09:35:38.528Z,5.20
2019-05-30T09:38:09.176Z,4.50
2019-05-30T09:40:40.845Z,4.03
2019-05-30T09:43:11.802Z,4.10
2019-05-30T09:45:42.388Z,4.90
2019-05-30T09:48:13.005Z,3.90
2019-05-30T09:50:43.892Z,4.07
2019-05-30T09:53:17.808Z,3.87
2019-05-30T09:55:48.648Z,3.70
2019-05-30T09:58:18.932Z,4.33
2019-05-30T10:00:50.532Z,3.77
2019-05-30T10:03:21.742Z,3.90
2019-05-30T10:05:52.643Z,4.33
2019-05-30T10:08:23.023Z,4.00
2019-05-30T10:10:53.614Z,4.03
2019-05-30T10:13:24.061Z,4.13
2019-05-30T10:15:54.594Z,4.30
2019-05-30T10:18:25.071Z,4.53
2019-05-30T10:21:37.977Z,4.30
2019-05-30T10:24:09.382Z,4.63
2019-05-30T10:26:39.765Z,4.43
2019-05-30T10:29:10.261Z,4.97
2019-05-30T10:31:41.053Z,4.83
2019-05-30T10:34:11.435Z,5.00
2019-05-30T10:36:44.516Z,4.37
2019-05-30T10:39:13.618Z,4.77
2019-05-30T10:41:44.594Z,4.67
2019-05-30T10:44:16.244Z,5.40
2019-05-30T10:46:48.928Z,4.40
2019-05-30T10:49:33.707Z,5.17
2019-05-30T10:51:56.287Z,4.27
2019-05-30T10:54:25.791Z,4.47
2019-05-30T10:56:56.600Z,4.90
2019-05-30T10:59:27.140Z,5.07
2019-05-30T11:01:57.510Z,4.77
2019-05-30T11:04:28.845Z,5.93
2019-05-30T11:07:30.572Z,4.50
2019-05-30T11:10:29.472Z,4.97
2019-05-30T11:13:05.626Z,4.87
2019-05-30T11:15:30.456Z,4.73
2019-05-30T11:18:02.018Z,4.57
2019-05-30T11:20:32.581Z,4.00
2019-05-30T11:23:03.213Z,4.00
2019-05-30T11:25:34.008Z,4.23
2019-05-30T11:28:05.461Z,3.80
2019-05-30T11:30:35.831Z,3.60
2019-05-30T11:33:06.524Z,3.97
2019-05-30T11:35:37.344Z,3.67
2019-05-30T11:38:07.990Z,3.63
2019-05-30T11:40:38.703Z,3.70
2019-05-30T11:43:09.084Z,4.33
2019-05-30T11:45:39.874Z,3.30
2019-05-30T11:48:10.358Z,4.07
2019-05-30T11:50:40.786Z,3.27
2019-05-30T11:53:11.479Z,4.30
2019-05-30T11:55:41.946Z,3.80
2019-05-30T11:58:12.416Z,3.33
2019-05-30T12:00:42.856Z,3.57
2019-05-30T12:03:13.193Z,4.40
2019-05-30T12:05:43.756Z,3.50
2019-05-30T12:08:13.945Z,3.00
2019-05-30T12:10:44.328Z,3.30
2019-05-30T12:13:15.129Z,3.80
2019-05-30T12:15:45.963Z,3.03
2019-05-30T12:18:16.697Z,3.20
2019-05-30T12:20:47.132Z,3.30
2019-05-30T12:23:18.634Z,3.37
2019-05-30T12:25:49.194Z,3.00
2019-05-30T12:28:19.706Z,2.97
2019-05-30T12:30:57.736Z,3.07
2019-05-30T12:33:22.499Z,3.03
2019-05-30T12:35:54.319Z,3.40
2019-05-30T12:38:24.697Z,2.90
2019-05-30T12:40:55.594Z,2.67
2019-05-30T12:43:26.922Z,2.17
2019-05-30T12:45:59.025Z,2.70
2019-05-30T12:48:29.462Z,2.80
2019-05-30T12:51:01.388Z,2.87
2019-05-30T12:53:32.231Z,2.30
2019-05-30T12:56:02.696Z,2.60
2019-05-30T12:58:33.211Z,2.30
2019-05-30T13:01:03.728Z,2.83
2019-05-30T13:03:34.013Z,2.47
2019-05-30T13:06:04.744Z,2.10
2019-05-30T13:08:35.090Z,2.50
2019-05-30T13:11:05.717Z,2.67
2019-05-30T13:13:36.013Z,2.33
2019-05-30T13:16:08.740Z,2.87
2019-05-30T13:18:39.205Z,2.97
2019-05-30T13:21:09.952Z,2.40
2019-05-30T13:23:40.453Z,2.90
2019-05-30T13:26:10.903Z,4.90
2019-05-30T13:28:41.151Z,2.40
2019-05-30T13:31:11.654Z,3.00
2019-05-30T13:33:42.023Z,2.70
2019-05-30T13:36:12.512Z,2.70
2019-05-30T13:38:42.944Z,2.73
2019-05-30T13:41:13.936Z,2.87
2019-05-30T13:43:44.506Z,2.73
2019-05-30T13:46:15.816Z,2.43
2019-05-30T13:48:46.375Z,2.83
2019-05-30T13:51:16.586Z,2.97
2019-05-30T13:53:47.207Z,2.80
2019-05-30T13:56:17.516Z,2.57
2019-05-30T13:58:47.859Z,2.70
2019-05-30T14:01:18.289Z,3.30
2019-05-30T14:03:48.717Z,2.30
2019-05-30T14:06:20.170Z,2.80
2019-05-30T14:08:50.810Z,3.13
2019-05-30T14:11:21.217Z,2.83
2019-05-30T14:13:51.398Z,2.70
2019-05-30T14:16:22.041Z,2.40
2019-05-30T14:18:52.479Z,2.30
2019-05-30T14:21:22.870Z,2.30
2019-05-30T14:23:53.408Z,2.40
2019-05-30T14:26:23.572Z,2.50
2019-05-30T14:28:54.202Z,3.03
2019-05-30T14:31:24.409Z,2.90
2019-05-30T14:33:54.719Z,2.20
2019-05-30T14:36:24.965Z,2.23
2019-05-30T14:38:58.673Z,2.33
2019-05-30T14:41:27.825Z,2.17
2019-05-30T14:43:58.599Z,2.03
2019-05-30T14:46:29.428Z,2.83
2019-05-30T14:48:59.601Z,1.87
2019-05-30T14:51:29.902Z,1.93
2019-05-30T14:54:00.325Z,2.33
2019-05-30T14:56:31.393Z,2.30
2019-05-30T14:59:01.528Z,1.73
2019-05-30T15:01:31.736Z,1.97
2019-05-30T15:04:02.626Z,1.60
2019-05-30T15:06:33.098Z,1.70
2019-05-30T15:09:15.070Z,1.53
2019-05-30T15:11:37.036Z,1.70
2019-05-30T15:14:08.622Z,1.93
2019-05-30T15:16:39.054Z,2.60
2019-05-30T15:19:10.304Z,1.70
2019-05-30T15:21:41.093Z,1.80
2019-05-30T15:24:12.811Z,1.63
2019-05-30T15:26:43.662Z,2.10
2019-05-30T15:29:14.180Z,3.00
2019-05-30T15:31:44.493Z,1.80
2019-05-30T15:34:14.740Z,2.10
2019-05-30T15:36:46.546Z,1.70
2019-05-30T15:39:31.563Z,2.00
2019-05-30T15:41:49.319Z,2.47
2019-05-30T15:44:19.828Z,2.30
2019-05-30T15:46:50.444Z,2.17
2019-05-30T15:49:22.264Z,3.07
2019-05-30T15:51:52.831Z,3.30
2019-05-30T15:54:23.276Z,2.40
2019-05-30T15:56:53.800Z,2.50
2019-05-30T15:59:24.378Z,2.40
2019-05-30T16:01:54.628Z,2.70
2019-05-30T16:04:24.870Z,2.40
2019-05-30T16:06:55.140Z,2.83
2019-05-30T16:09:25.735Z,3.13
2019-05-30T16:11:56.079Z,3.70
2019-05-30T16:14:26.312Z,3.10
2019-05-30T16:16:57.089Z,3.60
2019-05-30T16:19:28.388Z,3.07
2019-05-30T16:22:00.431Z,3.63
2019-05-30T16:24:31.447Z,3.60
2019-05-30T16:27:01.793Z,3.43
2019-05-30T16:29:32.391Z,4.00
2019-05-30T16:32:02.790Z,3.43
2019-05-30T16:34:33.198Z,3.43
2019-05-30T16:37:03.676Z,3.20
2019-05-30T16:39:33.995Z,3.70
2019-05-30T16:42:04.704Z,4.00
2019-05-30T16:44:35.114Z,3.37
2019-05-30T16:47:05.618Z,3.23
2019-05-30T16:49:36.107Z,3.10
2019-05-30T16:52:07.236Z,3.90
2019-05-30T16:54:37.518Z,3.73
2019-05-30T16:57:07.908Z,3.30
2019-05-30T16:59:38.126Z,3.60
2019-05-30T17:02:09.399Z,3.20
2019-05-30T17:04:40.573Z,3.63
2019-05-30T17:07:11.406Z,3.23
2019-05-30T17:09:41.869Z,4.43
2019-05-30T17:12:12.176Z,3.40
2019-05-30T17:14:43.331Z,3.30
2019-05-30T17:17:13.837Z,3.70
2019-05-30T17:19:44.031Z,3.60
2019-05-30T17:22:14.494Z,4.60
2019-05-30T17:24:45.001Z,4.13
2019-05-30T17:27:15.401Z,3.60
2019-05-30T17:29:45.793Z,3.70
2019-05-30T17:32:17.699Z,4.03
2019-05-30T17:34:49.129Z,4.80
2019-05-30T17:37:20.293Z,4.63
2019-05-30T17:39:51.230Z,3.43
2019-05-30T17:42:25.530Z,3.53
2019-05-30T17:44:55.880Z,3.97
2019-05-30T17:47:27.422Z,4.30
2019-05-30T17:49:57.762Z,3.80
2019-05-30T17:52:28.393Z,4.17
2019-05-30T17:54:59.486Z,3.43
2019-05-30T17:57:30.278Z,4.03
2019-05-30T18:00:00.709Z,3.80
2019-05-30T18:02:30.976Z,4.30
2019-05-30T18:05:01.401Z,3.80
2019-05-30T18:07:31.686Z,3.70
2019-05-30T18:10:02.054Z,3.40
2019-05-30T18:12:32.575Z,3.80
2019-05-30T18:15:04.245Z,3.53
2019-05-30T18:17:34.610Z,4.50
2019-05-30T18:20:06.050Z,3.80
2019-05-30T18:22:37.035Z,3.93
2019-05-30T18:25:09.329Z,4.30
2019-05-30T18:27:39.984Z,3.40
2019-05-30T18:30:10.503Z,5.27
2019-05-30T18:32:40.787Z,3.77
2019-05-30T18:35:11.210Z,3.90
2019-05-30T18:37:41.773Z,3.97
2019-05-30T18:40:12.518Z,3.37
2019-05-30T18:42:43.884Z,3.17
2019-05-30T18:45:14.716Z,4.00
2019-05-30T18:47:45.727Z,3.93
2019-05-30T18:50:16.237Z,3.40
2019-05-30T18:52:46.500Z,3.53
2019-05-30T18:55:17.231Z,3.37
2019-05-30T18:57:47.773Z,3.77
2019-05-30T19:00:18.600Z,3.93
2019-05-30T19:02:48.988Z,3.00
2019-05-30T19:05:19.413Z,3.83
2019-05-30T19:07:49.912Z,3.37
2019-05-30T19:10:20.237Z,3.43
2019-05-30T19:12:50.816Z,4.00
2019-05-30T19:15:22.489Z,3.70
2019-05-30T19:17:54.485Z,3.07
2019-05-30T19:20:26.213Z,2.67
2019-05-30T19:22:57.036Z,2.80
2019-05-30T19:25:27.875Z,2.93
2019-05-30T19:27:58.153Z,2.47
2019-05-30T19:30:28.707Z,2.37
2019-05-30T19:32:59.799Z,2.23
2019-05-30T19:35:31.355Z,3.20
2019-05-30T19:38:02.839Z,3.10
2019-05-30T19:40:33.728Z,3.20
2019-05-30T19:43:04.058Z,3.00
2019-05-30T19:45:34.525Z,2.80
2019-05-30T19:48:05.197Z,2.93
2019-05-30T19:50:36.863Z,3.13
2019-05-30T19:53:07.385Z,3.50
2019-05-30T19:55:39.440Z,3.50
2019-05-30T19:58:10.040Z,3.00
2019-05-30T20:00:57.297Z,3.47
2019-05-30T20:03:12.564Z,3.47
2019-05-30T20:05:43.211Z,3.27
2019-05-30T20:08:13.566Z,3.10
2019-05-30T20:10:45.433Z,2.80
2019-05-30T20:13:27.307Z,2.60
2019-05-30T20:15:58.201Z,3.40
2019-05-30T20:18:28.648Z,3.17
2019-05-30T20:20:59.018Z,2.57
2019-05-30T20:23:29.595Z,3.17
2019-05-30T20:26:00.313Z,3.40
2019-05-30T20:28:30.487Z,4.93
2019-05-30T20:31:00.729Z,4.57
2019-05-30T20:33:31.212Z,3.17
2019-05-30T20:36:01.482Z,3.10
2019-05-30T20:38:31.706Z,3.73
2019-05-30T20:41:02.279Z,2.83
2019-05-30T20:43:33.262Z,3.40
2019-05-30T20:46:03.964Z,2.63
2019-05-30T20:48:34.953Z,3.60
2019-05-30T20:51:20.296Z,2.70
2019-05-30T20:53:37.651Z,2.57
2019-05-30T20:56:08.388Z,3.10
2019-05-30T20:58:39.600Z,2.50
2019-05-30T21:01:10.539Z,2.00
2019-05-30T21:03:42.274Z,2.27
2019-05-30T21:06:13.591Z,2.80
2019-05-30T21:08:44.385Z,2.50
2019-05-30T21:11:14.976Z,3.00
2019-05-30T21:13:47.424Z,2.33
2019-05-30T21:16:21.054Z,2.60
2019-05-30T21:18:53.346Z,2.40
2019-05-30T21:21:23.893Z,2.90
2019-05-30T21:23:55.644Z,2.37
2019-05-30T21:26:26.097Z,2.47
2019-05-30T21:28:56.587Z,2.70
2019-05-30T21:31:27.520Z,2.73
2019-05-30T21:33:58.366Z,3.10
2019-05-30T21:36:29.106Z,2.30
2019-05-30T21:38:59.624Z,2.40
2019-05-30T21:41:30.445Z,2.30
2019-05-30T21:44:01.239Z,2.20
2019-05-30T21:46:32.052Z,2.80
2019-05-30T21:49:04.740Z,2.20
2019-05-30T21:51:35.211Z,2.57
2019-05-30T21:54:05.602Z,2.60
2019-05-30T21:56:36.017Z,2.40
2019-05-30T21:59:07.510Z,2.67
2019-05-30T22:01:40.687Z,2.17
2019-05-30T22:04:11.402Z,2.83
2019-05-30T22:06:42.802Z,2.77
2019-05-30T22:09:13.890Z,2.00
2019-05-30T22:11:45.570Z,2.30
2019-05-30T22:14:16.103Z,2.27
2019-05-30T22:16:47.659Z,2.27
2019-05-30T22:19:19.112Z,2.00
2019-05-30T22:21:52.203Z,2.20
2019-05-30T22:24:23.256Z,2.20
2019-05-30T22:26:54.164Z,2.37
2019-05-30T22:29:24.486Z,2.27
2019-05-30T22:31:55.154Z,2.20
2019-05-30T22:34:25.623Z,2.60
2019-05-30T22:36:56.348Z,2.17
2019-05-30T22:39:26.546Z,2.70
2019-05-30T22:41:56.898Z,2.53
2019-05-30T22:44:27.620Z,2.83
2019-05-30T22:46:57.873Z,2.23
2019-05-30T22:49:28.308Z,2.37
2019-05-30T22:51:58.866Z,2.70
2019-05-30T22:54:29.194Z,2.30
2019-05-30T22:57:01.305Z,3.20
2019-05-30T22:59:31.258Z,3.20
2019-05-30T23:02:01.639Z,2.80
2019-05-30T23:04:31.950Z,2.50
2019-05-30T23:07:02.248Z,2.87
2019-05-30T23:09:32.978Z,2.30
2019-05-30T23:12:03.246Z,2.50
2019-05-30T23:14:33.848Z,2.90
2019-05-30T23:17:04.293Z,2.50
2019-05-30T23:19:34.812Z,2.57
2019-05-30T23:22:05.220Z,2.57
2019-05-30T23:24:35.537Z,2.77
2019-05-30T23:27:08.270Z,2.60
2019-05-30T23:29:38.084Z,2.80
2019-05-30T23:32:08.571Z,3.20
2019-05-30T23:34:38.946Z,2.60
2019-05-30T23:37:09.585Z,2.10
2019-05-30T23:39:39.855Z,2.50
2019-05-30T23:42:10.484Z,2.83
2019-05-30T23:44:40.741Z,2.73
2019-05-30T23:47:11.653Z,3.27
2019-05-30T23:49:43.261Z,2.40
2019-05-30T23:52:13.759Z,2.70
2019-05-30T23:54:43.936Z,2.73
2019-05-30T23:57:14.205Z,2.57
2019-05-30T23:59:44.350Z,2.50
